Time;durP1;ratioP1;P1;durP2;ratioP2;P2;SDS_P1;SDS_P2;PMS_P1;PMS_P2;Temp;Humidity;BMP_temperature;BMP_pressure;BME280_temperature;BME280_humidity;BME280_pressure;Samples;Min_cycle;Max_cycle;Signal;HPM_P1;HPM_P2
2023/06/05 00:01:02;;;;;;;11.05;6.75;;;;;;;;;;4385961;32;317700;-82
2023/06/05 00:03:29;;;;;;;10.82;7.78;;;;;;;;;;4375231;32;317947;-77
2023/06/05 00:05:57;;;;;;;12.37;7.05;;;;;;;;;;4386585;32;317558;-82
2023/06/05 00:08:26;;;;;;;15.52;8.98;;;;;;;;;;4376134;32;317772;-82
2023/06/05 00:10:53;;;;;;;15.30;8.02;;;;;;;;;;4386786;32;317843;-84
2023/06/05 00:13:21;;;;;;;22.25;8.85;;;;;;;;;;4376152;32;346029;-92
2023/06/05 00:15:48;;;;;;;10.98;9.32;;;;;;;;;;4387137;32;317923;-83
2023/06/05 00:18:18;;;;;;;13.73;9.07;;;;;;;;;;4375200;32;317750;-90
2023/06/05 00:20:45;;;;;;;16.55;9.05;;;;;;;;;;4386791;32;317718;-83
2023/06/05 00:23:14;;;;;;;15.73;9.60;;;;;;;;;;4373588;32;317734;-92
2023/06/05 00:25:43;;;;;;;13.20;8.25;;;;;;;;;;4385145;32;317946;-85
2023/06/05 00:28:10;;;;;;;12.73;7.85;;;;;;;;;;4376583;32;317702;-93
2023/06/05 00:30:38;;;;;;;10.07;7.55;;;;;;;;;;4385494;32;328086;-92
2023/06/05 00:33:06;;;;;;;17.20;8.68;;;;;;;;;;4384590;32;317787;-88
2023/06/05 00:35:33;;;;;;;12.98;7.68;;;;;;;;;;4385212;32;341847;-91
2023/06/05 00:38:01;;;;;;;18.35;8.10;;;;;;;;;;4384242;32;318044;-93
2023/06/05 00:40:29;;;;;;;16.52;7.68;;;;;;;;;;4375434;32;318066;-88
2023/06/05 00:42:58;;;;;;;12.10;7.72;;;;;;;;;;4386038;32;317593;-93
2023/06/05 00:45:25;;;;;;;11.82;6.78;;;;;;;;;;4375051;32;317531;-92
2023/06/05 00:47:53;;;;;;;9.40;5.68;;;;;;;;;;4385512;32;318092;-92
2023/06/05 00:50:21;;;;;;;10.45;6.70;;;;;;;;;;4375333;32;316829;-92
2023/06/05 00:52:49;;;;;;;15.38;7.03;;;;;;;;;;4386967;32;317869;-83
2023/06/05 00:55:17;;;;;;;18.33;6.75;;;;;;;;;;4375438;32;317891;-83
2023/06/05 00:57:45;;;;;;;11.60;8.00;;;;;;;;;;4386595;32;317983;-82
2023/06/05 01:00:16;;;;;;;16.85;7.10;;;;;;;;;;4374408;32;317736;-82
2023/06/05 01:02:43;;;;;;;15.85;7.78;;;;;;;;;;4385816;32;317839;-82
2023/06/05 01:05:10;;;;;;;13.18;7.50;;;;;;;;;;4374874;32;317918;-83
2023/06/05 01:07:39;;;;;;;11.60;7.37;;;;;;;;;;4383889;32;317606;-83
2023/06/05 01:10:09;;;;;;;7.00;5.37;;;;;;;;;;4373763;32;317686;-83
2023/06/05 01:12:44;;;;;;;7.00;5.68;;;;;;;;;;4386292;32;316559;-90
2023/06/05 01:15:15;;;;;;;7.32;6.00;;;;;;;;;;4375218;32;316919;-90
2023/06/05 01:17:47;;;;;;;8.00;5.15;;;;;;;;;;4383864;32;316941;-82
2023/06/05 01:20:15;;;;;;;11.88;5.10;;;;;;;;;;4375614;32;316954;-86
2023/06/05 01:22:42;;;;;;;15.88;6.53;;;;;;;;;;4385089;32;316565;-83
2023/06/05 01:25:11;;;;;;;10.45;6.75;;;;;;;;;;4375554;32;318032;-91
2023/06/05 01:27:48;;;;;;;7.20;5.68;;;;;;;;;;4385035;32;317761;-92
2023/06/05 01:30:24;;;;;;;9.50;6.90;;;;;;;;;;4375684;32;316779;-77
2023/06/05 01:33:02;;;;;;;6.75;5.95;;;;;;;;;;4384883;32;316801;-78
2023/06/05 01:35:32;;;;;;;7.72;6.47;;;;;;;;;;4374813;32;316842;-78
2023/06/05 01:38:01;;;;;;;10.13;6.53;;;;;;;;;;4385059;32;316578;-82
2023/06/05 01:40:32;;;;;;;10.75;7.03;;;;;;;;;;4373150;32;327039;-77
2023/06/05 01:43:01;;;;;;;9.98;6.78;;;;;;;;;;4385542;32;316690;-77
2023/06/05 01:45:29;;;;;;;20.50;9.50;;;;;;;;;;4375067;32;316925;-77
2023/06/05 01:47:58;;;;;;;11.60;8.60;;;;;;;;;;4384094;32;317721;-81
2023/06/05 01:50:27;;;;;;;16.12;8.43;;;;;;;;;;4374853;32;317748;-81
2023/06/05 01:52:55;;;;;;;14.93;9.43;;;;;;;;;;4385377;32;318011;-85
2023/06/05 01:55:26;;;;;;;11.18;8.43;;;;;;;;;;4374689;32;317689;-76
2023/06/05 01:57:55;;;;;;;9.85;8.70;;;;;;;;;;4385418;32;317715;-79
2023/06/05 02:00:23;;;;;;;21.98;9.90;;;;;;;;;;4375044;32;316744;-88
2023/06/05 02:02:51;;;;;;;13.10;9.52;;;;;;;;;;4385562;32;316547;-79
2023/06/05 02:05:19;;;;;;;13.80;8.20;;;;;;;;;;4374020;32;317713;-84
2023/06/05 02:07:48;;;;;;;10.75;8.75;;;;;;;;;;4383311;32;317694;-91
2023/06/05 02:10:18;;;;;;;20.85;9.00;;;;;;;;;;4373488;32;317919;-79
2023/06/05 02:12:46;;;;;;;11.40;9.23;;;;;;;;;;4383453;32;358227;-90
2023/06/05 02:15:15;;;;;;;12.60;7.85;;;;;;;;;;4372398;32;317714;-87
2023/06/05 02:17:44;;;;;;;9.45;8.23;;;;;;;;;;4383250;32;317664;-77
2023/06/05 02:20:13;;;;;;;10.85;9.15;;;;;;;;;;4374427;32;316632;-90
2023/06/05 02:22:41;;;;;;;13.68;8.70;;;;;;;;;;4383272;32;317856;-90
2023/06/05 02:25:10;;;;;;;12.03;9.07;;;;;;;;;;4374090;32;352751;-90
2023/06/05 02:27:38;;;;;;;14.48;8.48;;;;;;;;;;4384446;32;317914;-82
2023/06/05 02:30:06;;;;;;;21.65;8.13;;;;;;;;;;4372816;32;317773;-83
2023/06/05 02:32:35;;;;;;;10.35;8.32;;;;;;;;;;4384461;32;318130;-87
2023/06/05 02:35:04;;;;;;;28.87;9.68;;;;;;;;;;4373212;32;321772;-86
2023/06/05 02:37:36;;;;;;;13.62;9.00;;;;;;;;;;4385222;32;317708;-93
2023/06/05 02:40:05;;;;;;;15.38;8.70;;;;;;;;;;4374250;32;345785;-93
2023/06/05 02:42:33;;;;;;;12.10;8.77;;;;;;;;;;4385273;32;317905;-81
2023/06/05 02:45:00;;;;;;;11.82;7.85;;;;;;;;;;4372825;32;317793;-92
2023/06/05 02:47:27;;;;;;;12.05;9.13;;;;;;;;;;4385050;32;317967;-93
2023/06/05 02:49:56;;;;;;;12.90;9.45;;;;;;;;;;4384079;32;317748;-93
2023/06/05 02:52:24;;;;;;;11.30;8.50;;;;;;;;;;4370938;32;417086;-85
2023/06/05 02:54:51;;;;;;;14.95;9.43;;;;;;;;;;4385137;32;317645;-91
2023/06/05 02:57:19;;;;;;;12.95;9.50;;;;;;;;;;4375355;32;317724;-88
2023/06/05 02:59:46;;;;;;;13.70;8.95;;;;;;;;;;4382429;32;317892;-92
2023/06/05 03:02:14;;;;;;;11.77;8.95;;;;;;;;;;4374051;32;317849;-93
2023/06/05 03:04:42;;;;;;;11.80;8.65;;;;;;;;;;4382998;32;317781;-94
2023/06/05 03:07:13;;;;;;;11.70;9.18;;;;;;;;;;4376567;32;327328;-93
2023/06/05 03:09:40;;;;;;;13.95;10.10;;;;;;;;;;4386995;32;317659;-89
2023/06/05 03:12:08;;;;;;;19.52;9.07;;;;;;;;;;4377626;32;318652;-90
2023/06/05 03:14:36;;;;;;;12.63;9.13;;;;;;;;;;4387405;32;317858;-84
2023/06/05 03:17:03;;;;;;;13.45;10.43;;;;;;;;;;4372741;32;317953;-82
2023/06/05 03:19:31;;;;;;;18.05;10.38;;;;;;;;;;4387357;32;318881;-82
2023/06/05 03:21:58;;;;;;;11.20;8.73;;;;;;;;;;4382728;32;318844;-82
2023/06/05 03:24:27;;;;;;;12.30;9.30;;;;;;;;;;4387554;32;317907;-86
2023/06/05 03:26:55;;;;;;;14.95;9.27;;;;;;;;;;4387800;32;317681;-91
2023/06/05 03:29:22;;;;;;;14.57;10.05;;;;;;;;;;4376513;32;317722;-83
2023/06/05 03:31:50;;;;;;;14.57;9.45;;;;;;;;;;4387619;32;318621;-84
2023/06/05 03:34:17;;;;;;;15.27;10.02;;;;;;;;;;4376498;32;317864;-84
2023/06/05 03:36:44;;;;;;;19.58;10.98;;;;;;;;;;4387304;32;317618;-77
2023/06/05 03:39:11;;;;;;;20.52;10.93;;;;;;;;;;4376386;32;319032;-82
2023/06/05 03:41:40;;;;;;;15.10;10.55;;;;;;;;;;4384917;32;318715;-87
2023/06/05 03:44:08;;;;;;;19.77;10.05;;;;;;;;;;4376388;32;326164;-84
2023/06/05 03:46:35;;;;;;;23.08;10.57;;;;;;;;;;4387506;32;318739;-79
2023/06/05 03:49:08;;;;;;;14.32;9.82;;;;;;;;;;4375512;32;321048;-78
2023/06/05 03:51:36;;;;;;;14.82;8.88;;;;;;;;;;4387078;32;318063;-81
2023/06/05 03:54:04;;;;;;;13.52;8.80;;;;;;;;;;4372895;32;317990;-80
2023/06/05 03:56:34;;;;;;;12.40;9.50;;;;;;;;;;4386855;32;317030;-79
2023/06/05 03:59:08;;;;;;;16.27;9.20;;;;;;;;;;4375858;32;318012;-78
2023/06/05 04:01:37;;;;;;;9.98;8.65;;;;;;;;;;4386346;32;317930;-85
2023/06/05 04:04:05;;;;;;;17.83;9.10;;;;;;;;;;4373814;32;343960;-93
2023/06/05 04:06:34;;;;;;;13.75;9.70;;;;;;;;;;4386956;32;317650;-86
2023/06/05 04:09:02;;;;;;;23.38;10.07;;;;;;;;;;4375382;32;318028;-78
2023/06/05 04:11:31;;;;;;;12.80;9.48;;;;;;;;;;4386303;32;318752;-78
2023/06/05 04:13:59;;;;;;;14.87;9.13;;;;;;;;;;4375024;32;317999;-80
2023/06/05 04:16:28;;;;;;;13.50;9.00;;;;;;;;;;4386033;32;317685;-84
2023/06/05 04:18:56;;;;;;;10.80;8.63;;;;;;;;;;4385361;32;317797;-81
2023/06/05 04:21:23;;;;;;;8.90;7.32;;;;;;;;;;4372227;32;418775;-92
2023/06/05 04:23:50;;;;;;;12.10;7.40;;;;;;;;;;4387043;32;316841;-78
2023/06/05 04:26:18;;;;;;;10.52;7.25;;;;;;;;;;4376928;32;317748;-80
2023/06/05 04:28:50;;;;;;;14.55;7.72;;;;;;;;;;4387146;32;318136;-82
2023/06/05 04:31:18;;;;;;;10.10;7.80;;;;;;;;;;4375265;32;317741;-84
2023/06/05 04:33:46;;;;;;;14.32;7.45;;;;;;;;;;4385213;32;316823;-81
2023/06/05 04:36:17;;;;;;;16.13;7.73;;;;;;;;;;4375359;32;317943;-79
2023/06/05 04:38:45;;;;;;;16.10;6.93;;;;;;;;;;4386854;32;318082;-78
2023/06/05 04:41:12;;;;;;;11.47;7.53;;;;;;;;;;4374504;32;318154;-86
2023/06/05 04:43:39;;;;;;;15.07;7.45;;;;;;;;;;4386298;32;317948;-88
2023/06/05 04:46:07;;;;;;;13.35;7.32;;;;;;;;;;4375461;32;318311;-83
2023/06/05 04:48:36;;;;;;;14.85;7.68;;;;;;;;;;4385358;32;318111;-86
2023/06/05 04:51:05;;;;;;;11.85;7.62;;;;;;;;;;4376227;32;317710;-89
2023/06/05 04:53:33;;;;;;;12.93;8.18;;;;;;;;;;4388514;32;317873;-84
2023/06/05 04:56:01;;;;;;;19.50;8.50;;;;;;;;;;4375100;32;317967;-83
2023/06/05 04:58:29;;;;;;;11.85;6.32;;;;;;;;;;4385847;32;318120;-86
2023/06/05 05:01:04;;;;;;;11.77;6.93;;;;;;;;;;4385944;32;318106;-84
2023/06/05 05:03:32;;;;;;;21.33;7.15;;;;;;;;;;4373196;32;417295;-78
2023/06/05 05:06:01;;;;;;;18.05;7.60;;;;;;;;;;4370290;32;334142;-82
2023/06/05 05:08:31;;;;;;;9.85;7.75;;;;;;;;;;4384625;32;317865;-83
2023/06/05 05:11:00;;;;;;;9.00;6.70;;;;;;;;;;4374848;32;316537;-83
2023/06/05 05:13:28;;;;;;;9.77;6.87;;;;;;;;;;4385052;32;316915;-84
2023/06/05 05:15:55;;;;;;;15.30;8.82;;;;;;;;;;4383225;32;316983;-80
2023/06/05 05:18:22;;;;;;;16.12;8.48;;;;;;;;;;4374826;32;317955;-80
2023/06/05 05:20:50;;;;;;;9.68;7.55;;;;;;;;;;4385122;32;318096;-91
2023/06/05 05:23:17;;;;;;;14.68;8.30;;;;;;;;;;4375008;32;316875;-83
2023/06/05 05:25:46;;;;;;;8.57;7.35;;;;;;;;;;4386207;32;318100;-80
2023/06/05 05:28:14;;;;;;;13.82;8.15;;;;;;;;;;4375154;32;316737;-93
2023/06/05 05:30:41;;;;;;;12.60;7.68;;;;;;;;;;4384035;32;318088;-92
2023/06/05 05:33:09;;;;;;;12.05;8.52;;;;;;;;;;4375663;32;317814;-80
2023/06/05 05:35:36;;;;;;;14.52;8.85;;;;;;;;;;4384460;32;317899;-78
2023/06/05 05:38:04;;;;;;;10.18;7.93;;;;;;;;;;4373521;32;317749;-85
2023/06/05 05:40:31;;;;;;;13.60;8.25;;;;;;;;;;4384514;32;350641;-81
2023/06/05 05:43:00;;;;;;;15.25;7.00;;;;;;;;;;4375446;32;317926;-82
2023/06/05 05:45:28;;;;;;;11.70;8.10;;;;;;;;;;4385302;32;318004;-85
2023/06/05 05:47:55;;;;;;;14.48;8.02;;;;;;;;;;4384798;32;317850;-87
2023/06/05 05:50:23;;;;;;;12.18;7.70;;;;;;;;;;4375078;32;318174;-87
2023/06/05 05:52:52;;;;;;;8.45;6.87;;;;;;;;;;4384301;32;326425;-80
2023/06/05 05:55:20;;;;;;;9.05;7.03;;;;;;;;;;4374407;32;316980;-87
2023/06/05 05:57:47;;;;;;;13.07;6.80;;;;;;;;;;4384256;32;316768;-87
2023/06/05 06:00:17;;;;;;;10.57;7.55;;;;;;;;;;4372942;32;318249;-79
2023/06/05 06:02:45;;;;;;;8.55;7.00;;;;;;;;;;4385528;32;318309;-81
2023/06/05 06:05:12;;;;;;;14.60;7.65;;;;;;;;;;4371937;32;316820;-87
2023/06/05 06:07:41;;;;;;;10.80;7.60;;;;;;;;;;4385602;32;317793;-85
2023/06/05 06:10:11;;;;;;;7.97;6.95;;;;;;;;;;4374301;32;317814;-82
2023/06/05 06:12:39;;;;;;;8.63;6.80;;;;;;;;;;4385559;32;316608;-84
2023/06/05 06:15:08;;;;;;;8.73;6.82;;;;;;;;;;4373092;32;316768;-85
2023/06/05 06:17:37;;;;;;;8.55;7.45;;;;;;;;;;4384817;32;342925;-86
2023/06/05 06:20:05;;;;;;;9.27;7.65;;;;;;;;;;4372702;32;316871;-86
2023/06/05 06:22:32;;;;;;;11.27;8.60;;;;;;;;;;4384630;32;317051;-83
2023/06/05 06:25:00;;;;;;;9.02;8.13;;;;;;;;;;4374610;32;317953;-83
2023/06/05 06:27:28;;;;;;;12.88;9.50;;;;;;;;;;4383709;32;316962;-86
2023/06/05 06:29:56;;;;;;;9.23;8.27;;;;;;;;;;4383861;32;317820;-86
2023/06/05 06:32:25;;;;;;;12.75;9.52;;;;;;;;;;4372838;32;387038;-89
2023/06/05 06:34:55;;;;;;;11.35;10.15;;;;;;;;;;4384319;32;318122;-94
2023/06/05 06:37:22;;;;;;;12.25;9.88;;;;;;;;;;4372814;32;345219;-85
2023/06/05 06:39:50;;;;;;;25.37;10.48;;;;;;;;;;4384385;32;317920;-88
2023/06/05 06:42:17;;;;;;;16.13;10.80;;;;;;;;;;4376335;32;333992;-93
2023/06/05 06:44:44;;;;;;;11.93;10.25;;;;;;;;;;4387446;32;318759;-90
2023/06/05 06:47:12;;;;;;;12.10;10.15;;;;;;;;;;4377838;32;319002;-82
2023/06/05 06:49:39;;;;;;;12.25;9.70;;;;;;;;;;4386781;32;318816;-83
2023/06/05 06:52:08;;;;;;;18.67;10.25;;;;;;;;;;4377191;32;317631;-84
2023/06/05 06:54:37;;;;;;;13.52;9.68;;;;;;;;;;4386571;32;319051;-84
2023/06/05 06:57:06;;;;;;;10.43;9.30;;;;;;;;;;4376331;32;318086;-84
2023/06/05 06:59:33;;;;;;;14.85;9.93;;;;;;;;;;4385836;32;317757;-84
2023/06/05 07:02:13;;;;;;;18.02;9.70;;;;;;;;;;4376448;32;317758;-84
2023/06/05 07:04:43;;;;;;;9.25;8.35;;;;;;;;;;4387227;32;316571;-82
2023/06/05 07:07:14;;;;;;;14.70;10.17;;;;;;;;;;4374856;32;316908;-81
2023/06/05 07:09:42;;;;;;;12.50;10.45;;;;;;;;;;4386138;32;318998;-81
2023/06/05 07:12:10;;;;;;;16.33;12.02;;;;;;;;;;4375153;32;354000;-81
2023/06/05 07:14:39;;;;;;;14.82;12.43;;;;;;;;;;4385095;32;339066;-82
2023/06/05 07:17:07;;;;;;;16.95;12.80;;;;;;;;;;4374185;32;318819;-82
2023/06/05 07:19:36;;;;;;;13.10;11.73;;;;;;;;;;4385700;32;318873;-82
2023/06/05 07:22:05;;;;;;;14.07;12.48;;;;;;;;;;4375781;32;319298;-83
2023/06/05 07:24:36;;;;;;;13.32;10.63;;;;;;;;;;4387065;32;319014;-82
2023/06/05 07:27:05;;;;;;;14.85;11.73;;;;;;;;;;4374321;32;319214;-82
2023/06/05 07:29:32;;;;;;;15.38;11.68;;;;;;;;;;4384637;32;318822;-82
2023/06/05 07:32:02;;;;;;;19.62;11.52;;;;;;;;;;4375255;32;319088;-82
2023/06/05 07:34:30;;;;;;;17.73;11.32;;;;;;;;;;4387790;32;319125;-91
2023/06/05 07:36:58;;;;;;;14.18;11.60;;;;;;;;;;4387444;32;319027;-91
2023/06/05 07:39:27;;;;;;;11.35;9.95;;;;;;;;;;4371740;32;390377;-90
2023/06/05 07:42:05;;;;;;;14.23;11.02;;;;;;;;;;4387449;32;317329;-91
2023/06/05 07:44:32;;;;;;;13.13;11.15;;;;;;;;;;4379635;32;389868;-89
2023/06/05 07:47:00;;;;;;;13.62;10.65;;;;;;;;;;4376450;32;318769;-89
2023/06/05 07:49:32;;;;;;;19.35;12.57;;;;;;;;;;4386198;32;319043;-91
2023/06/05 07:52:01;;;;;;;16.45;12.60;;;;;;;;;;4374912;32;318815;-91
2023/06/05 07:54:29;;;;;;;18.40;11.70;;;;;;;;;;4384915;32;339611;-91
2023/06/05 07:56:59;;;;;;;20.73;11.20;;;;;;;;;;4387605;32;317791;-91
2023/06/05 07:59:27;;;;;;;12.20;9.85;;;;;;;;;;4373274;32;418151;-91
2023/06/05 08:01:56;;;;;;;12.50;11.18;;;;;;;;;;4386986;32;317833;-90
2023/06/05 08:04:24;;;;;;;15.75;10.88;;;;;;;;;;4376586;32;318909;-87
2023/06/05 08:06:53;;;;;;;11.98;10.63;;;;;;;;;;4386992;32;318847;-92
2023/06/05 08:09:21;;;;;;;21.55;10.40;;;;;;;;;;4375985;32;318910;-90
2023/06/05 08:11:48;;;;;;;16.95;11.30;;;;;;;;;;4386400;32;318779;-91
2023/06/05 08:14:17;;;;;;;14.10;11.35;;;;;;;;;;4376410;32;318963;-88
2023/06/05 08:16:45;;;;;;;19.42;13.35;;;;;;;;;;4385793;32;318381;-95
2023/06/05 08:19:13;;;;;;;18.45;10.80;;;;;;;;;;4377899;32;318772;-96
2023/06/05 08:21:40;;;;;;;15.73;10.57;;;;;;;;;;4386449;32;318996;-86
2023/06/05 08:24:09;;;;;;;14.05;11.50;;;;;;;;;;4378962;32;318795;-94
2023/06/05 08:26:37;;;;;;;14.55;10.82;;;;;;;;;;4389220;32;318806;-85
2023/06/05 08:29:04;;;;;;;21.40;12.50;;;;;;;;;;4374247;32;346646;-86
2023/06/05 08:31:36;;;;;;;12.98;11.65;;;;;;;;;;4391755;32;319389;-90
2023/06/05 08:34:03;;;;;;;15.55;12.63;;;;;;;;;;4381155;32;366441;-85
2023/06/05 08:36:32;;;;;;;14.13;12.63;;;;;;;;;;4387031;32;318045;-93
2023/06/05 08:39:04;;;;;;;13.07;11.07;;;;;;;;;;4374048;32;318676;-92
2023/06/05 08:41:33;;;;;;;12.50;11.20;;;;;;;;;;4386696;32;319213;-91
2023/06/05 08:44:05;;;;;;;18.40;11.18;;;;;;;;;;4376491;32;318912;-93
2023/06/05 08:46:37;;;;;;;14.82;11.82;;;;;;;;;;4387822;32;318819;-88
2023/06/05 08:49:11;;;;;;;13.13;11.63;;;;;;;;;;4375515;32;318896;-88
2023/06/05 08:51:41;;;;;;;14.35;12.48;;;;;;;;;;4385974;32;318738;-90
2023/06/05 08:54:12;;;;;;;11.95;10.65;;;;;;;;;;4375036;32;318941;-85
2023/06/05 08:56:40;;;;;;;13.60;11.15;;;;;;;;;;4384705;32;319104;-81
2023/06/05 08:59:08;;;;;;;11.65;10.43;;;;;;;;;;4374429;32;318848;-82
2023/06/05 09:01:38;;;;;;;19.90;11.52;;;;;;;;;;4384133;32;318676;-87
2023/06/05 09:04:08;;;;;;;13.02;11.35;;;;;;;;;;4374254;32;319046;-79
2023/06/05 09:06:36;;;;;;;13.65;10.80;;;;;;;;;;4385917;32;318810;-82
2023/06/05 09:09:08;;;;;;;11.55;10.20;;;;;;;;;;4369975;32;321183;-82
2023/06/05 09:11:36;;;;;;;22.65;12.07;;;;;;;;;;4386289;32;318948;-83
2023/06/05 09:14:03;;;;;;;13.52;11.15;;;;;;;;;;4374000;32;319080;-83
2023/06/05 09:16:37;;;;;;;18.55;11.07;;;;;;;;;;4386444;32;318764;-82
2023/06/05 09:19:06;;;;;;;12.95;10.57;;;;;;;;;;4374494;32;318897;-81
2023/06/05 09:21:33;;;;;;;13.82;12.00;;;;;;;;;;4385913;32;318662;-81
2023/06/05 09:24:17;;;;;;;17.55;11.12;;;;;;;;;;4374041;32;319038;-82
2023/06/05 09:26:57;;;;;;;15.30;11.15;;;;;;;;;;4385619;32;346505;-81
2023/06/05 09:29:26;;;;;;;16.27;11.77;;;;;;;;;;4371615;32;417772;-81
2023/06/05 09:31:56;;;;;;;16.92;11.27;;;;;;;;;;4385161;32;318625;-81
2023/06/05 09:34:26;;;;;;;17.27;12.48;;;;;;;;;;4372253;32;417420;-80
2023/06/05 09:36:55;;;;;;;15.48;12.98;;;;;;;;;;4385887;32;318843;-82
2023/06/05 09:39:24;;;;;;;14.95;12.10;;;;;;;;;;4375816;32;318835;-83
2023/06/05 09:41:52;;;;;;;15.88;11.98;;;;;;;;;;4384466;32;319116;-81
2023/06/05 09:44:20;;;;;;;16.98;13.45;;;;;;;;;;4373198;32;318851;-82
2023/06/05 09:47:00;;;;;;;12.10;10.93;;;;;;;;;;4383236;32;318969;-81
2023/06/05 09:49:29;;;;;;;20.55;13.15;;;;;;;;;;4370040;32;417881;-82
2023/06/05 09:51:58;;;;;;;14.20;12.70;;;;;;;;;;4385772;32;318740;-81
2023/06/05 09:54:28;;;;;;;18.98;12.95;;;;;;;;;;4371367;32;418468;-81
2023/06/05 09:56:59;;;;;;;12.93;11.57;;;;;;;;;;4384692;32;318788;-86
2023/06/05 09:59:31;;;;;;;14.30;11.57;;;;;;;;;;4370701;32;418668;-82
2023/06/05 10:02:04;;;;;;;12.40;11.20;;;;;;;;;;4385916;32;318728;-82
2023/06/05 10:04:39;;;;;;;13.32;12.00;;;;;;;;;;4370849;32;418807;-82
2023/06/05 10:07:06;;;;;;;15.05;12.88;;;;;;;;;;4375645;32;319013;-80
2023/06/05 10:09:34;;;;;;;15.15;11.85;;;;;;;;;;4385900;32;318686;-81
2023/06/05 10:12:02;;;;;;;21.77;15.20;;;;;;;;;;4375117;32;318751;-83
2023/06/05 10:14:30;;;;;;;15.82;13.18;;;;;;;;;;4383934;32;346067;-83
2023/06/05 10:17:00;;;;;;;17.30;12.75;;;;;;;;;;4388119;32;318673;-83
2023/06/05 10:19:28;;;;;;;16.15;12.75;;;;;;;;;;4375602;32;421367;-82
2023/06/05 10:21:56;;;;;;;14.40;12.70;;;;;;;;;;4388061;32;318638;-82
2023/06/05 10:24:28;;;;;;;13.73;12.37;;;;;;;;;;4378012;32;318889;-82
2023/06/05 10:27:18;;;;;;;16.70;12.68;;;;;;;;;;4388761;32;318791;-83
2023/06/05 10:30:14;;;;;;;15.98;13.27;;;;;;;;;;4373706;32;416627;-83
2023/06/05 10:33:03;;;;;;;17.08;14.00;;;;;;;;;;4373262;32;418916;-82
2023/06/05 10:35:45;;;;;;;15.23;13.73;;;;;;;;;;4375367;32;418847;-82
2023/06/05 10:38:18;;;;;;;20.77;13.70;;;;;;;;;;4377878;32;318709;-82
2023/06/05 10:40:49;;;;;;;20.40;13.30;;;;;;;;;;4385411;32;318821;-83
2023/06/05 10:43:30;;;;;;;15.40;13.90;;;;;;;;;;4374718;32;319146;-81
2023/06/05 10:45:58;;;;;;;18.52;14.38;;;;;;;;;;4387533;32;338089;-81
2023/06/05 10:49:03;;;;;;;13.23;11.93;;;;;;;;;;4372748;32;419016;-84
2023/06/05 10:51:39;;;;;;;14.80;12.07;;;;;;;;;;4375008;32;422176;-81
2023/06/05 10:54:07;;;;;;;21.17;12.47;;;;;;;;;;4376281;32;318847;-82
2023/06/05 10:56:57;;;;;;;14.30;11.73;;;;;;;;;;4387860;32;318773;-81
2023/06/05 10:59:25;;;;;;;13.80;12.40;;;;;;;;;;4367823;32;418769;-85
2023/06/05 11:02:27;;;;;;;13.15;11.80;;;;;;;;;;4386961;32;318699;-84
2023/06/05 11:05:11;;;;;;;13.48;11.80;;;;;;;;;;4381762;32;418585;-81
2023/06/05 11:07:45;;;;;;;14.35;11.70;;;;;;;;;;4366067;32;418941;-82
2023/06/05 11:10:20;;;;;;;17.52;11.43;;;;;;;;;;4377972;32;328494;-81
2023/06/05 11:13:00;;;;;;;12.30;11.10;;;;;;;;;;4387829;32;319124;-81
2023/06/05 11:15:43;;;;;;;15.40;10.88;;;;;;;;;;4375888;32;389697;-81
2023/06/05 11:18:29;;;;;;;12.13;10.73;;;;;;;;;;4376940;32;318802;-90
2023/06/05 11:20:57;;;;;;;13.32;11.80;;;;;;;;;;4386460;32;318861;-89
2023/06/05 11:23:27;;;;;;;15.05;11.60;;;;;;;;;;4373926;32;391438;-86
2023/06/05 11:25:59;;;;;;;15.38;11.60;;;;;;;;;;4386970;32;318701;-85
2023/06/05 11:28:40;;;;;;;17.33;12.75;;;;;;;;;;4374499;32;389094;-87
2023/06/05 11:31:08;;;;;;;14.52;11.75;;;;;;;;;;4377120;32;318694;-85
2023/06/05 11:33:35;;;;;;;12.45;11.25;;;;;;;;;;4387419;32;319027;-87
2023/06/05 11:36:06;;;;;;;12.88;11.50;;;;;;;;;;4376874;32;318936;-92
2023/06/05 11:38:36;;;;;;;11.98;10.85;;;;;;;;;;4386443;32;318818;-85
2023/06/05 11:41:09;;;;;;;12.30;11.10;;;;;;;;;;4377614;32;318893;-85
2023/06/05 11:43:43;;;;;;;12.18;10.98;;;;;;;;;;4388075;32;318730;-85
2023/06/05 11:46:11;;;;;;;12.50;10.75;;;;;;;;;;4376998;32;318831;-85
2023/06/05 11:48:45;;;;;;;14.57;11.57;;;;;;;;;;4387648;32;318803;-85
2023/06/05 11:51:12;;;;;;;14.90;11.02;;;;;;;;;;4377112;32;318976;-85
2023/06/05 11:53:49;;;;;;;11.65;10.55;;;;;;;;;;4385886;32;319299;-85
2023/06/05 11:56:17;;;;;;;13.32;12.02;;;;;;;;;;4377617;32;318978;-85
2023/06/05 11:58:45;;;;;;;14.20;12.80;;;;;;;;;;4386336;32;319034;-85
2023/06/05 12:01:21;;;;;;;13.95;11.68;;;;;;;;;;4377434;32;318875;-85
2023/06/05 12:03:50;;;;;;;15.35;12.10;;;;;;;;;;4386427;32;318698;-85
2023/06/05 12:06:18;;;;;;;19.48;12.75;;;;;;;;;;4377041;32;336965;-84
2023/06/05 12:08:48;;;;;;;15.23;12.63;;;;;;;;;;4386323;32;319033;-85
2023/06/05 12:11:23;;;;;;;15.18;12.18;;;;;;;;;;4377582;32;318819;-81
2023/06/05 12:13:52;;;;;;;21.92;13.75;;;;;;;;;;4385713;32;332153;-83
2023/06/05 12:16:21;;;;;;;17.77;13.25;;;;;;;;;;4375883;32;331267;-83
2023/06/05 12:18:49;;;;;;;15.45;13.07;;;;;;;;;;4387277;32;318655;-86
2023/06/05 12:21:24;;;;;;;16.43;13.93;;;;;;;;;;4376840;32;318734;-85
2023/06/05 12:24:01;;;;;;;16.60;14.75;;;;;;;;;;4384762;32;355178;-83
2023/06/05 12:26:29;;;;;;;14.77;13.40;;;;;;;;;;4374485;32;389088;-85
2023/06/05 12:29:05;;;;;;;14.60;13.18;;;;;;;;;;4386004;32;318921;-83
2023/06/05 12:31:39;;;;;;;20.35;15.50;;;;;;;;;;4374153;32;418461;-79
2023/06/05 12:34:06;;;;;;;18.42;14.38;;;;;;;;;;4377253;32;319158;-80
2023/06/05 12:36:40;;;;;;;14.10;12.73;;;;;;;;;;4386146;32;318850;-80
2023/06/05 12:39:12;;;;;;;23.15;13.10;;;;;;;;;;4374597;32;318969;-81
2023/06/05 12:41:40;;;;;;;15.82;12.65;;;;;;;;;;4385482;32;318968;-83
2023/06/05 12:44:08;;;;;;;12.27;11.18;;;;;;;;;;4376007;32;319082;-88
2023/06/05 12:46:36;;;;;;;12.48;11.27;;;;;;;;;;4385591;32;318704;-82
2023/06/05 12:49:05;;;;;;;13.25;11.95;;;;;;;;;;4375442;32;319033;-83
2023/06/05 12:51:33;;;;;;;21.50;14.80;;;;;;;;;;4387054;32;318761;-82
2023/06/05 12:54:00;;;;;;;25.12;14.85;;;;;;;;;;4376288;32;318928;-84
2023/06/05 12:56:29;;;;;;;15.23;11.32;;;;;;;;;;4387053;32;318938;-83
2023/06/05 12:58:58;;;;;;;14.27;11.55;;;;;;;;;;4387009;32;318891;-84
2023/06/05 13:01:26;;;;;;;14.00;11.25;;;;;;;;;;4373629;32;418364;-82
2023/06/05 13:03:53;;;;;;;12.23;10.93;;;;;;;;;;4386620;32;318744;-84
2023/06/05 13:06:21;;;;;;;17.20;12.57;;;;;;;;;;4375058;32;318768;-84
2023/06/05 13:08:49;;;;;;;13.00;11.60;;;;;;;;;;4386346;32;335463;-83
2023/06/05 13:11:16;;;;;;;16.45;11.70;;;;;;;;;;4376214;32;318936;-84
2023/06/05 13:13:45;;;;;;;15.00;11.05;;;;;;;;;;4385789;32;319019;-83
2023/06/05 13:16:12;;;;;;;12.37;11.18;;;;;;;;;;4375659;32;318908;-84
2023/06/05 13:18:39;;;;;;;14.27;10.88;;;;;;;;;;4386116;32;319021;-87
2023/06/05 13:21:07;;;;;;;14.82;11.57;;;;;;;;;;4374954;32;319152;-88
2023/06/05 13:23:34;;;;;;;15.25;11.23;;;;;;;;;;4384930;32;318859;-83
2023/06/05 13:26:02;;;;;;;13.20;11.82;;;;;;;;;;4374878;32;318540;-85
2023/06/05 13:28:30;;;;;;;13.25;11.95;;;;;;;;;;4383506;32;358483;-83
2023/06/05 13:30:58;;;;;;;12.73;10.63;;;;;;;;;;4385860;32;318856;-82
2023/06/05 13:33:26;;;;;;;12.25;11.05;;;;;;;;;;4372067;32;418875;-83
2023/06/05 13:35:53;;;;;;;13.82;11.20;;;;;;;;;;4386102;32;318911;-82
2023/06/05 13:38:21;;;;;;;14.13;11.60;;;;;;;;;;4375403;32;318739;-82
2023/06/05 13:40:51;;;;;;;11.98;10.77;;;;;;;;;;4384772;32;318763;-83
2023/06/05 13:43:19;;;;;;;13.70;10.90;;;;;;;;;;4374285;32;357042;-81
2023/06/05 13:45:47;;;;;;;14.55;10.55;;;;;;;;;;4385885;32;318942;-82
2023/06/05 13:48:15;;;;;;;11.93;10.77;;;;;;;;;;4376459;32;318965;-83
2023/06/05 13:50:43;;;;;;;11.57;10.40;;;;;;;;;;4384259;32;319186;-82
2023/06/05 13:53:10;;;;;;;11.40;10.20;;;;;;;;;;4373631;32;318670;-85
2023/06/05 13:55:39;;;;;;;10.38;9.27;;;;;;;;;;4385833;32;318875;-83
2023/06/05 13:58:07;;;;;;;10.88;9.98;;;;;;;;;;4376415;32;317959;-85
2023/06/05 14:00:34;;;;;;;12.82;9.70;;;;;;;;;;4385785;32;317732;-83
2023/06/05 14:03:01;;;;;;;11.55;9.48;;;;;;;;;;4375554;32;318853;-83
2023/06/05 14:05:31;;;;;;;16.62;12.45;;;;;;;;;;4384828;32;317492;-83
2023/06/05 14:07:58;;;;;;;10.70;9.38;;;;;;;;;;4385186;32;318798;-83
2023/06/05 14:10:26;;;;;;;18.73;11.10;;;;;;;;;;4372123;32;417058;-84
2023/06/05 14:12:54;;;;;;;14.98;11.98;;;;;;;;;;4386038;32;318957;-82
2023/06/05 14:15:22;;;;;;;20.40;11.35;;;;;;;;;;4374242;32;319033;-83
2023/06/05 14:17:51;;;;;;;28.23;11.43;;;;;;;;;;4383608;32;318884;-81
2023/06/05 14:20:20;;;;;;;12.10;10.75;;;;;;;;;;4375006;32;318785;-82
2023/06/05 14:22:49;;;;;;;12.10;10.52;;;;;;;;;;4386135;32;318783;-80
2023/06/05 14:25:16;;;;;;;12.35;10.48;;;;;;;;;;4373862;32;318726;-82